createdAt,value
2018-12-01T00:00:22.687Z,98.46
2018-12-01T00:02:51.421Z,98.29
2018-12-01T00:05:19.809Z,97.67
2018-12-01T00:07:48.707Z,97.77
2018-12-01T00:10:17.158Z,98.81
2018-12-01T00:12:45.578Z,98.96
2018-12-01T00:15:15.631Z,99.93
2018-12-01T00:17:43.926Z,98.58
2018-12-01T00:20:13.562Z,98.99
2018-12-01T00:22:42.012Z,99.37
2018-12-01T00:25:10.389Z,99.59
2018-12-01T00:27:38.692Z,99.21
2018-12-01T00:30:12.060Z,99.58
2018-12-01T00:32:40.475Z,100.00
2018-12-01T00:35:09.962Z,99.89
2018-12-01T00:37:38.329Z,100.00
2018-12-01T00:40:21.980Z,100.00
2018-12-01T00:42:50.348Z,99.70
2018-12-01T00:45:21.621Z,99.99
2018-12-01T00:47:51.062Z,99.38
2018-12-01T00:50:20.607Z,100.00
2018-12-01T00:52:49.677Z,100.00
2018-12-01T00:55:18.785Z,100.00
2018-12-01T00:57:47.167Z,100.00
2018-12-01T01:00:20.130Z,100.00
2018-12-01T01:02:51.031Z,100.00
2018-12-01T01:05:20.193Z,100.00
2018-12-01T01:07:48.545Z,100.00
2018-12-01T01:10:16.901Z,100.00
2018-12-01T01:12:45.220Z,100.00
2018-12-01T01:15:14.675Z,100.00
2018-12-01T01:17:43.003Z,100.00
2018-12-01T01:20:12.508Z,100.00
2018-12-01T01:22:40.910Z,100.00
2018-12-01T01:25:10.355Z,100.00
2018-12-01T01:27:38.757Z,100.00
2018-12-01T01:30:11.736Z,100.00
2018-12-01T01:32:40.173Z,100.00
2018-12-01T01:35:08.520Z,100.00
2018-12-01T01:37:36.832Z,100.00
2018-12-01T01:40:06.985Z,100.00
2018-12-01T01:42:35.398Z,100.00
2018-12-01T01:45:03.745Z,100.00
2018-12-01T01:47:32.203Z,100.00
2018-12-01T01:50:00.501Z,100.00
2018-12-01T01:52:28.828Z,100.00
2018-12-01T01:54:57.174Z,100.00
2018-12-01T01:57:25.527Z,100.00
2018-12-01T01:59:53.842Z,100.00
2018-12-01T02:02:22.211Z,100.00
2018-12-01T02:04:50.561Z,100.00
2018-12-01T02:07:18.953Z,100.00
2018-12-01T02:09:47.293Z,100.00
2018-12-01T02:12:15.604Z,100.00
2018-12-01T02:14:43.933Z,100.00
2018-12-01T02:17:12.371Z,100.00
2018-12-01T02:19:40.693Z,100.00
2018-12-01T02:22:09.150Z,100.00
2018-12-01T02:24:37.912Z,100.00
2018-12-01T02:27:06.760Z,100.00
2018-12-01T02:29:35.126Z,100.00
2018-12-01T02:32:03.627Z,100.00
2018-12-01T02:34:32.007Z,100.00
2018-12-01T02:37:00.442Z,100.00
2018-12-01T02:39:28.844Z,100.00
2018-12-01T02:41:57.177Z,100.00
2018-12-01T02:44:36.908Z,100.00
2018-12-01T02:47:08.939Z,100.00
2018-12-01T02:49:37.666Z,100.00
2018-12-01T02:52:06.829Z,99.99
2018-12-01T02:54:35.376Z,100.00
2018-12-01T02:57:03.804Z,99.87
2018-12-01T02:59:32.254Z,100.00
2018-12-01T03:02:00.603Z,99.59
2018-12-01T03:04:28.905Z,99.52
2018-12-01T03:06:57.298Z,99.69
2018-12-01T03:09:25.648Z,100.00
2018-12-01T03:11:54.013Z,99.98
2018-12-01T03:14:22.401Z,99.97
2018-12-01T03:16:50.748Z,100.00
2018-12-01T03:19:19.077Z,99.15
2018-12-01T03:21:47.572Z,100.00
2018-12-01T03:24:15.868Z,99.61
2018-12-01T03:26:44.198Z,99.30
2018-12-01T03:29:12.551Z,98.74
2018-12-01T03:31:40.865Z,99.73
2018-12-01T03:34:09.155Z,99.78
2018-12-01T03:36:37.512Z,100.00
2018-12-01T03:39:08.868Z,100.00
2018-12-01T03:41:37.681Z,100.00
2018-12-01T03:44:06.656Z,100.00
2018-12-01T03:46:34.969Z,99.73
2018-12-01T03:49:03.287Z,100.00
2018-12-01T03:51:31.601Z,100.00
2018-12-01T03:54:00.045Z,100.00
2018-12-01T03:56:28.603Z,100.00
2018-12-01T03:58:57.014Z,100.00
2018-12-01T04:01:25.348Z,100.00
2018-12-01T04:03:53.708Z,100.00
2018-12-01T04:06:22.053Z,100.00
2018-12-01T04:08:50.513Z,100.00
2018-12-01T04:11:18.868Z,100.00
2018-12-01T04:13:47.272Z,100.00
2018-12-01T04:16:15.669Z,100.00
2018-12-01T04:18:44.028Z,100.00
2018-12-01T04:21:12.337Z,100.00
2018-12-01T04:23:40.653Z,100.00
2018-12-01T04:26:09.037Z,100.00
2018-12-01T04:28:37.414Z,100.00
2018-12-01T04:31:05.934Z,100.00
2018-12-01T04:33:34.442Z,100.00
2018-12-01T04:36:02.773Z,100.00
2018-12-01T04:38:31.152Z,100.00
2018-12-01T04:40:59.504Z,100.00
2018-12-01T04:43:27.918Z,100.00
2018-12-01T04:45:56.287Z,100.00
2018-12-01T04:48:24.673Z,100.00
2018-12-01T04:50:52.991Z,100.00
2018-12-01T04:53:21.322Z,99.80
2018-12-01T04:55:49.629Z,100.00
2018-12-01T04:58:17.947Z,100.00
2018-12-01T05:00:46.262Z,100.00
2018-12-01T05:03:14.623Z,100.00
2018-12-01T05:05:42.989Z,100.00
2018-12-01T05:08:11.365Z,100.00
2018-12-01T05:10:39.662Z,100.00
2018-12-01T05:13:08.041Z,100.00
2018-12-01T05:15:37.149Z,100.00
2018-12-01T05:18:06.122Z,99.66
2018-12-01T05:20:34.444Z,99.97
2018-12-01T05:23:02.793Z,100.00
2018-12-01T05:25:31.116Z,99.66
2018-12-01T05:27:59.434Z,100.00
2018-12-01T05:30:27.871Z,99.81
2018-12-01T05:32:56.268Z,99.94
2018-12-01T05:35:25.374Z,100.00
2018-12-01T05:37:53.751Z,99.94
2018-12-01T05:40:22.413Z,100.00
2018-12-01T05:42:50.798Z,99.64
2018-12-01T05:45:20.169Z,99.76
2018-12-01T05:47:48.859Z,100.00
2018-12-01T05:50:25.525Z,100.00
2018-12-01T05:52:54.853Z,99.87
2018-12-01T05:55:23.260Z,99.30
2018-12-01T05:57:51.695Z,100.00
2018-12-01T06:00:20.386Z,99.93
2018-12-01T06:02:48.766Z,99.96
2018-12-01T06:05:17.117Z,99.17
2018-12-01T06:07:45.763Z,100.00
2018-12-01T06:10:18.017Z,100.00
2018-12-01T06:12:47.063Z,100.00
2018-12-01T06:15:16.204Z,100.00
2018-12-01T06:17:44.552Z,100.00
2018-12-01T06:20:18.268Z,100.00
2018-12-01T06:22:46.612Z,100.00
2018-12-01T06:25:16.203Z,100.00
2018-12-01T06:27:44.547Z,100.00
2018-12-01T06:30:17.934Z,100.00
2018-12-01T06:32:46.924Z,100.00
2018-12-01T06:35:15.317Z,100.00
2018-12-01T06:37:43.618Z,100.00
2018-12-01T06:40:20.449Z,100.00
2018-12-01T06:42:49.320Z,100.00
2018-12-01T06:45:18.261Z,100.00
2018-12-01T06:47:46.601Z,100.00
2018-12-01T06:50:16.002Z,100.00
2018-12-01T06:52:44.442Z,100.00
2018-12-01T06:55:13.712Z,100.00
2018-12-01T06:57:42.540Z,100.00
2018-12-01T07:00:13.242Z,100.00
2018-12-01T07:02:43.100Z,100.00
2018-12-01T07:05:12.534Z,100.00
2018-12-01T07:07:41.142Z,99.88
2018-12-01T07:10:11.836Z,100.00
2018-12-01T07:12:42.316Z,100.00
2018-12-01T07:15:13.769Z,100.00
2018-12-01T07:17:43.961Z,100.00
2018-12-01T07:20:12.881Z,100.00
2018-12-01T07:22:41.292Z,100.00
2018-12-01T07:25:09.914Z,100.00
2018-12-01T07:27:38.208Z,100.00
2018-12-01T07:30:11.144Z,100.00
2018-12-01T07:32:39.550Z,100.00
2018-12-01T07:35:08.704Z,100.00
2018-12-01T07:37:37.287Z,100.00
2018-12-01T07:40:10.651Z,100.00
2018-12-01T07:42:39.094Z,99.84
2018-12-01T07:45:09.961Z,99.31
2018-12-01T07:47:38.395Z,100.00
2018-12-01T07:50:10.719Z,100.00
2018-12-01T07:52:39.233Z,99.52
2018-12-01T07:55:07.701Z,98.91
2018-12-01T07:57:36.031Z,99.87
2018-12-01T08:00:06.281Z,99.69
2018-12-01T08:02:34.653Z,99.37
2018-12-01T08:05:03.434Z,99.94
2018-12-01T08:07:31.856Z,99.55
2018-12-01T08:10:00.322Z,100.00
2018-12-01T08:12:28.695Z,100.00
2018-12-01T08:14:58.349Z,99.74
2018-12-01T08:17:29.250Z,99.04
2018-12-01T08:19:57.969Z,98.88
2018-12-01T08:22:27.017Z,98.94
2018-12-01T08:24:55.720Z,99.80
2018-12-01T08:27:24.076Z,99.27
2018-12-01T08:29:52.676Z,99.53
2018-12-01T08:32:21.725Z,99.18
2018-12-01T08:34:50.105Z,99.13
2018-12-01T08:37:19.489Z,99.72
2018-12-01T08:39:50.563Z,98.94
2018-12-01T08:42:18.894Z,99.35
2018-12-01T08:44:47.541Z,98.61
2018-12-01T08:47:15.905Z,99.07
2018-12-01T08:49:44.527Z,98.68
2018-12-01T08:52:12.985Z,99.25
2018-12-01T08:54:41.594Z,98.58
2018-12-01T08:57:10.075Z,98.34
2018-12-01T08:59:39.534Z,98.29
2018-12-01T09:02:11.798Z,98.83
2018-12-01T09:04:40.338Z,98.29
2018-12-01T09:07:09.375Z,97.87
2018-12-01T09:09:37.721Z,97.47
2018-12-01T09:12:06.855Z,96.70
2018-12-01T09:14:35.146Z,96.71
2018-12-01T09:17:03.487Z,96.96
2018-12-01T09:19:31.769Z,97.00
2018-12-01T09:22:00.113Z,96.85
2018-12-01T09:24:28.418Z,97.08
2018-12-01T09:26:56.761Z,96.21
2018-12-01T09:29:25.236Z,95.84
2018-12-01T09:31:54.016Z,96.11
2018-12-01T09:34:22.358Z,95.78
2018-12-01T09:36:50.863Z,95.50
2018-12-01T09:39:21.651Z,95.15
2018-12-01T09:41:50.262Z,94.51
2018-12-01T09:44:18.631Z,94.84
2018-12-01T09:46:47.082Z,93.86
2018-12-01T09:49:15.552Z,94.34
2018-12-01T09:51:44.038Z,93.78
2018-12-01T09:54:12.477Z,94.12
2018-12-01T09:56:40.808Z,93.53
2018-12-01T09:59:09.127Z,93.77
2018-12-01T10:01:37.464Z,92.40
2018-12-01T10:04:06.295Z,91.43
2018-12-01T10:06:34.702Z,92.04
2018-12-01T10:09:03.161Z,92.31
2018-12-01T10:11:31.516Z,91.58
2018-12-01T10:13:59.834Z,91.46
2018-12-01T10:16:28.405Z,90.62
2018-12-01T10:18:56.779Z,91.12
2018-12-01T10:21:25.109Z,90.91
2018-12-01T10:23:53.576Z,91.32
2018-12-01T10:26:21.969Z,90.81
2018-12-01T10:28:50.306Z,91.33
2018-12-01T10:31:18.804Z,91.26
2018-12-01T10:33:47.179Z,90.45
2018-12-01T10:36:15.637Z,90.88
2018-12-01T10:38:43.952Z,90.66
2018-12-01T10:41:12.294Z,89.64
2018-12-01T10:43:40.662Z,89.85
2018-12-01T10:46:08.984Z,89.98
2018-12-01T10:48:37.363Z,90.47
2018-12-01T10:51:05.987Z,90.22
2018-12-01T10:53:34.337Z,89.32
2018-12-01T10:56:02.748Z,88.59
2018-12-01T10:58:31.096Z,89.03
2018-12-01T11:01:04.811Z,89.29
2018-12-01T11:03:38.373Z,88.47
2018-12-01T11:06:11.102Z,88.67
2018-12-01T11:08:39.578Z,89.28
2018-12-01T11:11:07.982Z,89.58
2018-12-01T11:13:36.401Z,89.70
2018-12-01T11:16:06.074Z,89.36
2018-12-01T11:18:34.454Z,89.75
2018-12-01T11:21:02.853Z,89.05
2018-12-01T11:23:31.230Z,88.65
2018-12-01T11:25:59.570Z,89.03
2018-12-01T11:28:28.224Z,89.68
2018-12-01T11:30:56.757Z,89.25
2018-12-01T11:33:25.137Z,88.71
2018-12-01T11:35:54.395Z,88.12
2018-12-01T11:38:22.735Z,88.60
2018-12-01T11:40:51.242Z,88.54
2018-12-01T11:43:19.638Z,88.44
2018-12-01T11:45:48.153Z,88.51
2018-12-01T11:48:16.594Z,88.37
2018-12-01T11:50:44.966Z,89.03
2018-12-01T11:53:13.858Z,88.35
2018-12-01T11:55:42.174Z,88.97
2018-12-01T11:58:10.632Z,88.33
2018-12-01T12:00:39.187Z,88.16
2018-12-01T12:03:07.688Z,87.63
2018-12-01T12:05:36.116Z,87.33
2018-12-01T12:08:19.375Z,86.97
2018-12-01T12:10:47.702Z,86.11
2018-12-01T12:13:16.083Z,86.04
2018-12-01T12:15:44.731Z,86.17
2018-12-01T12:18:13.275Z,86.22
2018-12-01T12:20:41.761Z,85.60
2018-12-01T12:23:10.231Z,85.49
2018-12-01T12:25:38.529Z,86.61
2018-12-01T12:28:07.252Z,86.04
2018-12-01T12:30:35.914Z,86.80
2018-12-01T12:33:04.378Z,85.97
2018-12-01T12:35:32.800Z,85.12
2018-12-01T12:38:01.360Z,85.79
2018-12-01T12:40:29.796Z,85.75
2018-12-01T12:43:00.049Z,84.40
2018-12-01T12:45:28.524Z,85.71
2018-12-01T12:47:56.990Z,85.80
2018-12-01T12:50:25.336Z,86.69
2018-12-01T12:52:54.764Z,86.09
2018-12-01T12:55:27.276Z,85.35
2018-12-01T12:57:55.802Z,85.44
2018-12-01T13:00:25.016Z,86.24
2018-12-01T13:02:57.589Z,86.03
2018-12-01T13:05:33.908Z,87.04
2018-12-01T13:08:02.698Z,86.69
2018-12-01T13:10:31.221Z,85.74
2018-12-01T13:12:59.695Z,85.30
2018-12-01T13:15:28.120Z,86.53
2018-12-01T13:17:56.550Z,85.67
2018-12-01T13:20:25.458Z,86.50
2018-12-01T13:22:55.297Z,86.20
2018-12-01T13:25:23.622Z,86.16
2018-12-01T13:27:53.782Z,85.40
2018-12-01T13:30:24.608Z,86.21
2018-12-01T13:32:53.095Z,85.86
2018-12-01T13:35:21.577Z,86.86
2018-12-01T13:37:50.057Z,87.29
2018-12-01T13:40:18.395Z,86.98
2018-12-01T13:42:47.169Z,87.48
2018-12-01T13:45:17.429Z,86.44
2018-12-01T13:47:47.076Z,86.16
2018-12-01T13:50:17.257Z,87.20
2018-12-01T13:52:50.182Z,87.10
2018-12-01T13:55:18.622Z,86.50
2018-12-01T13:57:47.600Z,86.07
2018-12-01T14:00:16.777Z,86.61
2018-12-01T14:02:45.145Z,86.65
2018-12-01T14:05:13.773Z,86.48
2018-12-01T14:07:42.130Z,86.33
2018-12-01T14:10:13.702Z,85.65
2018-12-01T14:12:42.409Z,85.72
2018-12-01T14:15:15.349Z,85.62
2018-12-01T14:17:43.777Z,84.58
2018-12-01T14:20:13.464Z,84.96
2018-12-01T14:22:41.917Z,86.03
2018-12-01T14:25:11.245Z,85.77
2018-12-01T14:27:40.398Z,85.87
2018-12-01T14:30:11.999Z,85.69
2018-12-01T14:32:40.408Z,85.87
2018-12-01T14:35:26.004Z,86.55
2018-12-01T14:37:58.000Z,86.49
2018-12-01T14:40:26.476Z,87.06
2018-12-01T14:42:54.824Z,86.70
2018-12-01T14:45:23.221Z,86.74
2018-12-01T14:47:51.599Z,85.31
2018-12-01T14:50:20.105Z,85.78
2018-12-01T14:52:48.575Z,86.68
2018-12-01T14:55:17.734Z,86.64
2018-12-01T14:57:47.438Z,85.85
2018-12-01T15:00:18.042Z,85.99
2018-12-01T15:02:46.746Z,85.29
2018-12-01T15:05:15.195Z,85.52
2018-12-01T15:07:43.811Z,85.05
2018-12-01T15:10:17.197Z,85.10
2018-12-01T15:12:45.606Z,86.25
2018-12-01T15:15:15.182Z,86.19
2018-12-01T15:17:43.730Z,85.89
2018-12-01T15:20:13.294Z,85.67
2018-12-01T15:22:42.096Z,86.08
2018-12-01T15:25:13.033Z,85.79
2018-12-01T15:27:41.479Z,86.18
2018-12-01T15:30:28.052Z,86.66
2018-12-01T15:33:14.595Z,86.34
2018-12-01T15:35:44.477Z,86.55
2018-12-01T15:38:14.250Z,87.04
2018-12-01T15:40:43.429Z,87.44
2018-12-01T15:43:11.915Z,87.48
2018-12-01T15:45:40.308Z,87.61
2018-12-01T15:48:08.808Z,87.06
2018-12-01T15:50:37.131Z,87.77
2018-12-01T15:53:08.013Z,88.17
2018-12-01T15:55:36.430Z,88.29
2018-12-01T15:58:04.853Z,88.23
2018-12-01T16:00:33.234Z,88.63
2018-12-01T16:03:01.744Z,88.72
2018-12-01T16:05:30.091Z,88.77
2018-12-01T16:07:59.286Z,89.00
2018-12-01T16:10:28.447Z,89.20
2018-12-01T16:12:58.433Z,89.45
2018-12-01T16:15:29.424Z,89.40
2018-12-01T16:17:57.961Z,89.90
2018-12-01T16:20:26.655Z,89.85
2018-12-01T16:22:55.055Z,90.64
2018-12-01T16:25:24.480Z,90.81
2018-12-01T16:27:52.797Z,90.73
2018-12-01T16:30:26.828Z,90.90
2018-12-01T16:32:57.374Z,91.28
2018-12-01T16:35:25.739Z,91.39
2018-12-01T16:37:54.121Z,91.30
2018-12-01T16:40:29.371Z,91.46
2018-12-01T16:42:59.111Z,91.53
2018-12-01T16:45:27.709Z,91.78
2018-12-01T16:47:56.233Z,91.57
2018-12-01T16:50:24.653Z,91.18
2018-12-01T16:52:52.991Z,91.44
2018-12-01T16:55:21.475Z,91.33
2018-12-01T16:57:49.927Z,91.68
2018-12-01T17:00:19.585Z,91.54
2018-12-01T17:02:50.419Z,91.81
2018-12-01T17:05:19.874Z,91.71
2018-12-01T17:07:48.663Z,90.98
2018-12-01T17:10:18.489Z,90.55
2018-12-01T17:12:48.002Z,91.60
2018-12-01T17:15:17.629Z,91.27
2018-12-01T17:17:46.388Z,91.98
2018-12-01T17:20:16.256Z,91.96
2018-12-01T17:22:49.256Z,91.45
2018-12-01T17:25:18.142Z,91.26
2018-12-01T17:27:47.356Z,91.46
2018-12-01T17:30:27.518Z,91.10
2018-12-01T17:32:56.987Z,91.47
2018-12-01T17:35:30.247Z,91.69
2018-12-01T17:38:01.095Z,90.95
2018-12-01T17:41:32.745Z,90.93
2018-12-01T17:44:04.102Z,91.21
2018-12-01T17:46:33.618Z,90.95
2018-12-01T17:49:02.200Z,91.18
2018-12-01T17:51:30.612Z,90.99
2018-12-01T17:54:17.899Z,91.07
2018-12-01T17:56:47.103Z,90.41
2018-12-01T17:59:15.464Z,90.75
2018-12-01T18:01:43.851Z,90.45
2018-12-01T18:04:12.719Z,90.48
2018-12-01T18:06:42.355Z,91.13
2018-12-01T18:09:10.849Z,91.06
2018-12-01T18:11:39.706Z,91.14
2018-12-01T18:14:10.084Z,91.10
2018-12-01T18:16:38.703Z,90.52
2018-12-01T18:19:16.271Z,91.20
2018-12-01T18:21:45.241Z,90.96
2018-12-01T18:24:13.571Z,91.16
2018-12-01T18:26:41.934Z,91.78
2018-12-01T18:29:10.383Z,90.98
2018-12-01T18:31:38.841Z,91.63
2018-12-01T18:34:12.585Z,91.55
2018-12-01T18:36:41.105Z,91.82
2018-12-01T18:39:13.453Z,92.32
2018-12-01T18:41:42.031Z,92.54
2018-12-01T18:44:10.584Z,91.62
2018-12-01T18:46:39.026Z,92.00
2018-12-01T18:49:07.755Z,92.08
2018-12-01T18:51:36.228Z,91.82
2018-12-01T18:54:05.043Z,92.29
2018-12-01T18:56:33.400Z,92.09
2018-12-01T18:59:01.761Z,92.03
2018-12-01T19:01:30.185Z,92.43
2018-12-01T19:03:58.573Z,91.43
2018-12-01T19:06:27.008Z,91.93
2018-12-01T19:08:55.521Z,91.78
2018-12-01T19:11:23.949Z,91.71
2018-12-01T19:13:52.399Z,91.99
2018-12-01T19:16:20.758Z,91.62
2018-12-01T19:18:49.286Z,92.03
2018-12-01T19:21:17.645Z,91.75
2018-12-01T19:23:46.504Z,91.74
2018-12-01T19:26:15.076Z,92.14
2018-12-01T19:28:43.561Z,91.40
2018-12-01T19:31:11.895Z,91.48
2018-12-01T19:33:40.532Z,91.59
2018-12-01T19:36:09.107Z,91.81
2018-12-01T19:38:37.577Z,91.49
2018-12-01T19:41:06.363Z,91.31
2018-12-01T19:43:34.888Z,92.01
2018-12-01T19:46:04.280Z,91.58
2018-12-01T19:48:32.674Z,91.84
2018-12-01T19:51:01.100Z,91.90
2018-12-01T19:53:29.611Z,91.86
2018-12-01T19:55:58.106Z,92.16
2018-12-01T19:58:28.893Z,91.95
2018-12-01T20:00:58.246Z,92.08
2018-12-01T20:03:28.062Z,91.83
2018-12-01T20:05:56.413Z,91.78
2018-12-01T20:08:27.476Z,91.44
2018-12-01T20:10:58.373Z,91.18
2018-12-01T20:13:57.745Z,91.46
2018-12-01T20:16:35.001Z,91.20
2018-12-01T20:19:04.776Z,90.83
2018-12-01T20:21:33.168Z,91.88
2018-12-01T20:24:01.610Z,90.60
2018-12-01T20:26:29.953Z,90.65
2018-12-01T20:28:58.406Z,90.11
2018-12-01T20:31:27.087Z,90.32
2018-12-01T20:33:58.239Z,90.10
2018-12-01T20:36:31.547Z,90.54
2018-12-01T20:39:10.487Z,89.80
2018-12-01T20:41:38.809Z,90.20
2018-12-01T20:44:07.812Z,90.55
2018-12-01T20:46:36.161Z,89.85
2018-12-01T20:49:04.593Z,90.22
2018-12-01T20:51:33.371Z,90.51
2018-12-01T20:54:01.939Z,90.88
2018-12-01T20:56:32.872Z,90.78
2018-12-01T20:59:01.243Z,90.61
2018-12-01T21:01:29.604Z,89.98
2018-12-01T21:03:58.999Z,90.50
2018-12-01T21:06:27.370Z,90.76
2018-12-01T21:08:55.984Z,90.75
2018-12-01T21:11:24.316Z,90.14
2018-12-01T21:13:53.298Z,90.56
2018-12-01T21:16:22.818Z,90.63
2018-12-01T21:18:51.826Z,90.62
2018-12-01T21:21:20.176Z,90.37
2018-12-01T21:23:48.678Z,90.43
2018-12-01T21:26:17.105Z,90.19
2018-12-01T21:28:45.434Z,91.08
2018-12-01T21:31:13.793Z,89.98
2018-12-01T21:33:42.290Z,90.66
2018-12-01T21:36:11.028Z,90.75
2018-12-01T21:38:39.654Z,90.68
2018-12-01T21:41:08.018Z,91.47
2018-12-01T21:43:36.501Z,91.78
2018-12-01T21:46:04.995Z,91.84
2018-12-01T21:48:33.568Z,92.37
2018-12-01T21:51:01.984Z,92.10
2018-12-01T21:53:30.373Z,91.79
2018-12-01T21:55:58.718Z,91.64
2018-12-01T21:58:27.082Z,91.49
2018-12-01T22:00:57.823Z,91.32
2018-12-01T22:03:26.883Z,91.67
2018-12-01T22:06:00.162Z,91.32
2018-12-01T22:08:28.888Z,91.16
2018-12-01T22:10:59.123Z,91.21
2018-12-01T22:13:27.930Z,90.27
2018-12-01T22:15:56.650Z,90.10
2018-12-01T22:18:25.653Z,89.24
2018-12-01T22:20:54.165Z,89.34
2018-12-01T22:23:22.445Z,90.08
2018-12-01T22:25:50.845Z,89.53
2018-12-01T22:28:19.197Z,89.58
2018-12-01T22:30:49.334Z,89.31
2018-12-01T22:33:20.490Z,88.62
2018-12-01T22:35:49.193Z,88.84
2018-12-01T22:38:17.512Z,88.45
2018-12-01T22:40:46.709Z,88.91
2018-12-01T22:43:15.180Z,88.72
2018-12-01T22:45:43.683Z,87.99
2018-12-01T22:48:13.778Z,87.95
2018-12-01T22:50:43.680Z,87.29
2018-12-01T22:53:12.134Z,87.15
2018-12-01T22:55:41.600Z,87.33
2018-12-01T22:58:12.156Z,87.48
2018-12-01T23:00:48.640Z,87.43
2018-12-01T23:03:17.184Z,86.83
2018-12-01T23:05:45.672Z,86.60
2018-12-01T23:08:15.331Z,87.02
2018-12-01T23:10:43.700Z,86.56
2018-12-01T23:13:12.102Z,87.22
2018-12-01T23:15:40.520Z,87.21
2018-12-01T23:18:13.201Z,86.30
2018-12-01T23:20:43.099Z,85.62
2018-12-01T23:23:11.418Z,86.05
2018-12-01T23:25:39.861Z,86.30
2018-12-01T23:28:08.764Z,86.23
2018-12-01T23:30:37.672Z,86.27
2018-12-01T23:33:11.562Z,86.54
2018-12-01T23:35:40.650Z,87.23
2018-12-01T23:38:09.125Z,86.91
2018-12-01T23:40:38.721Z,86.97
2018-12-01T23:43:07.116Z,87.01
2018-12-01T23:45:36.055Z,87.15
2018-12-01T23:48:04.760Z,87.29
2018-12-01T23:50:33.513Z,87.09
2018-12-01T23:53:03.574Z,86.86
2018-12-01T23:55:31.953Z,87.41
2018-12-01T23:58:00.301Z,87.42
